sensor_id;sensor_type;location;lat;lon;timestamp;P1;durP1;ratioP1;P2;durP2;ratioP2
31298;SDS011;17927;52.350;13.402;2024-01-10T00:00:07;74.97;;;30.73;;
31298;SDS011;17927;52.350;13.402;2024-01-10T00:02:33;76.82;;;28.50;;
31298;SDS011;17927;52.350;13.402;2024-01-10T00:04:58;71.50;;;28.98;;
31298;SDS011;17927;52.350;13.402;2024-01-10T00:07:24;74.75;;;29.35;;
31298;SDS011;17927;52.350;13.402;2024-01-10T00:09:49;81.75;;;30.80;;
31298;SDS011;17927;52.350;13.402;2024-01-10T00:12:14;82.30;;;31.25;;
31298;SDS011;17927;52.350;13.402;2024-01-10T00:14:39;86.00;;;33.28;;
31298;SDS011;17927;52.350;13.402;2024-01-10T00:17:05;72.50;;;29.73;;
31298;SDS011;17927;52.350;13.402;2024-01-10T00:19:30;86.65;;;31.80;;
31298;SDS011;17927;52.350;13.402;2024-01-10T00:21:55;75.75;;;30.58;;
31298;SDS011;17927;52.350;13.402;2024-01-10T00:24:20;73.78;;;30.60;;
31298;SDS011;17927;52.350;13.402;2024-01-10T00:26:46;78.13;;;31.77;;
31298;SDS011;17927;52.350;13.402;2024-01-10T00:29:11;89.50;;;31.05;;
31298;SDS011;17927;52.350;13.402;2024-01-10T00:31:36;83.53;;;32.78;;
31298;SDS011;17927;52.350;13.402;2024-01-10T00:34:02;76.80;;;30.08;;
31298;SDS011;17927;52.350;13.402;2024-01-10T00:36:27;72.97;;;29.65;;
31298;SDS011;17927;52.350;13.402;2024-01-10T00:38:52;86.50;;;32.67;;
31298;SDS011;17927;52.350;13.402;2024-01-10T00:41:17;83.18;;;32.03;;
31298;SDS011;17927;52.350;13.402;2024-01-10T00:43:43;82.55;;;31.85;;
31298;SDS011;17927;52.350;13.402;2024-01-10T00:46:08;84.80;;;31.88;;
31298;SDS011;17927;52.350;13.402;2024-01-10T00:48:33;89.05;;;33.50;;
31298;SDS011;17927;52.350;13.402;2024-01-10T00:50:59;89.85;;;34.33;;
31298;SDS011;17927;52.350;13.402;2024-01-10T00:53:24;86.13;;;32.30;;
31298;SDS011;17927;52.350;13.402;2024-01-10T00:55:49;83.80;;;32.88;;
31298;SDS011;17927;52.350;13.402;2024-01-10T00:58:14;92.18;;;34.58;;
31298;SDS011;17927;52.350;13.402;2024-01-10T01:00:40;92.38;;;33.95;;
31298;SDS011;17927;52.350;13.402;2024-01-10T01:03:06;79.05;;;32.85;;
31298;SDS011;17927;52.350;13.402;2024-01-10T01:05:31;86.22;;;33.15;;
31298;SDS011;17927;52.350;13.402;2024-01-10T01:07:56;80.90;;;33.38;;
31298;SDS011;17927;52.350;13.402;2024-01-10T01:10:22;84.93;;;33.55;;
31298;SDS011;17927;52.350;13.402;2024-01-10T01:12:47;84.22;;;33.22;;
31298;SDS011;17927;52.350;13.402;2024-01-10T01:15:12;87.10;;;32.67;;
31298;SDS011;17927;52.350;13.402;2024-01-10T01:17:38;97.10;;;33.03;;
31298;SDS011;17927;52.350;13.402;2024-01-10T01:20:03;78.20;;;30.90;;
31298;SDS011;17927;52.350;13.402;2024-01-10T01:22:29;83.43;;;31.95;;
31298;SDS011;17927;52.350;13.402;2024-01-10T01:24:56;87.38;;;33.10;;
31298;SDS011;17927;52.350;13.402;2024-01-10T01:27:21;81.75;;;32.40;;
31298;SDS011;17927;52.350;13.402;2024-01-10T01:29:46;82.25;;;33.00;;
31298;SDS011;17927;52.350;13.402;2024-01-10T01:32:11;83.30;;;33.75;;
31298;SDS011;17927;52.350;13.402;2024-01-10T01:34:37;82.78;;;32.28;;
31298;SDS011;17927;52.350;13.402;2024-01-10T01:37:02;91.18;;;33.30;;
31298;SDS011;17927;52.350;13.402;2024-01-10T01:39:27;85.22;;;33.67;;
31298;SDS011;17927;52.350;13.402;2024-01-10T01:41:52;92.55;;;34.25;;
31298;SDS011;17927;52.350;13.402;2024-01-10T01:44:18;89.13;;;35.22;;
31298;SDS011;17927;52.350;13.402;2024-01-10T01:46:43;88.47;;;34.40;;
31298;SDS011;17927;52.350;13.402;2024-01-10T01:49:10;78.90;;;31.70;;
31298;SDS011;17927;52.350;13.402;2024-01-10T01:51:36;90.60;;;34.00;;
31298;SDS011;17927;52.350;13.402;2024-01-10T01:54:03;98.13;;;36.30;;
31298;SDS011;17927;52.350;13.402;2024-01-10T01:56:32;75.53;;;30.40;;
31298;SDS011;17927;52.350;13.402;2024-01-10T01:58:57;84.15;;;33.97;;
31298;SDS011;17927;52.350;13.402;2024-01-10T02:01:22;84.50;;;31.90;;
31298;SDS011;17927;52.350;13.402;2024-01-10T02:03:48;78.95;;;29.75;;
31298;SDS011;17927;52.350;13.402;2024-01-10T02:06:13;93.07;;;34.65;;
31298;SDS011;17927;52.350;13.402;2024-01-10T02:08:38;84.97;;;32.95;;
31298;SDS011;17927;52.350;13.402;2024-01-10T02:11:04;86.57;;;32.88;;
31298;SDS011;17927;52.350;13.402;2024-01-10T02:13:30;93.03;;;34.53;;
31298;SDS011;17927;52.350;13.402;2024-01-10T02:15:57;88.55;;;34.10;;
31298;SDS011;17927;52.350;13.402;2024-01-10T02:18:23;93.22;;;37.80;;
31298;SDS011;17927;52.350;13.402;2024-01-10T02:20:49;84.45;;;34.00;;
31298;SDS011;17927;52.350;13.402;2024-01-10T02:23:14;92.32;;;36.90;;
31298;SDS011;17927;52.350;13.402;2024-01-10T02:25:40;92.10;;;32.80;;
31298;SDS011;17927;52.350;13.402;2024-01-10T02:28:06;84.97;;;30.67;;
31298;SDS011;17927;52.350;13.402;2024-01-10T02:30:31;83.15;;;33.50;;
31298;SDS011;17927;52.350;13.402;2024-01-10T02:32:57;92.72;;;33.25;;
31298;SDS011;17927;52.350;13.402;2024-01-10T02:35:22;77.97;;;30.98;;
31298;SDS011;17927;52.350;13.402;2024-01-10T02:37:47;86.57;;;33.47;;
31298;SDS011;17927;52.350;13.402;2024-01-10T02:40:16;82.35;;;32.35;;
31298;SDS011;17927;52.350;13.402;2024-01-10T02:42:41;84.63;;;34.53;;
31298;SDS011;17927;52.350;13.402;2024-01-10T02:45:06;88.50;;;34.28;;
31298;SDS011;17927;52.350;13.402;2024-01-10T02:47:32;91.20;;;33.58;;
31298;SDS011;17927;52.350;13.402;2024-01-10T02:50:12;81.82;;;31.73;;
31298;SDS011;17927;52.350;13.402;2024-01-10T02:52:38;80.78;;;31.58;;
31298;SDS011;17927;52.350;13.402;2024-01-10T02:55:03;86.75;;;32.83;;
31298;SDS011;17927;52.350;13.402;2024-01-10T02:57:28;87.95;;;34.33;;
31298;SDS011;17927;52.350;13.402;2024-01-10T02:59:54;90.32;;;33.17;;
31298;SDS011;17927;52.350;13.402;2024-01-10T03:02:19;86.60;;;33.42;;
31298;SDS011;17927;52.350;13.402;2024-01-10T03:04:44;81.65;;;33.05;;
31298;SDS011;17927;52.350;13.402;2024-01-10T03:07:10;83.95;;;32.85;;
31298;SDS011;17927;52.350;13.402;2024-01-10T03:09:35;89.88;;;34.20;;
31298;SDS011;17927;52.350;13.402;2024-01-10T03:12:01;81.82;;;32.88;;
31298;SDS011;17927;52.350;13.402;2024-01-10T03:14:26;85.72;;;33.05;;
31298;SDS011;17927;52.350;13.402;2024-01-10T03:16:51;84.28;;;33.13;;
31298;SDS011;17927;52.350;13.402;2024-01-10T03:19:18;82.93;;;34.38;;
31298;SDS011;17927;52.350;13.402;2024-01-10T03:21:43;87.40;;;32.63;;
31298;SDS011;17927;52.350;13.402;2024-01-10T03:24:08;94.57;;;35.88;;
31298;SDS011;17927;52.350;13.402;2024-01-10T03:26:34;91.95;;;33.13;;
31298;SDS011;17927;52.350;13.402;2024-01-10T03:28:59;87.95;;;32.92;;
31298;SDS011;17927;52.350;13.402;2024-01-10T03:31:26;87.60;;;33.28;;
31298;SDS011;17927;52.350;13.402;2024-01-10T03:33:52;89.20;;;33.72;;
31298;SDS011;17927;52.350;13.402;2024-01-10T03:36:18;82.43;;;32.92;;
31298;SDS011;17927;52.350;13.402;2024-01-10T03:38:43;93.18;;;34.83;;
31298;SDS011;17927;52.350;13.402;2024-01-10T03:41:15;87.05;;;35.42;;
31298;SDS011;17927;52.350;13.402;2024-01-10T03:43:44;94.60;;;34.30;;
31298;SDS011;17927;52.350;13.402;2024-01-10T03:46:10;84.53;;;33.60;;
31298;SDS011;17927;52.350;13.402;2024-01-10T03:48:36;98.95;;;35.72;;
31298;SDS011;17927;52.350;13.402;2024-01-10T03:51:16;84.47;;;31.50;;
31298;SDS011;17927;52.350;13.402;2024-01-10T03:53:43;81.45;;;32.50;;
31298;SDS011;17927;52.350;13.402;2024-01-10T03:56:08;84.50;;;33.83;;
31298;SDS011;17927;52.350;13.402;2024-01-10T03:58:34;91.80;;;33.92;;
31298;SDS011;17927;52.350;13.402;2024-01-10T04:00:59;97.00;;;36.58;;
31298;SDS011;17927;52.350;13.402;2024-01-10T04:03:29;93.70;;;35.17;;
31298;SDS011;17927;52.350;13.402;2024-01-10T04:05:54;99.18;;;35.58;;
31298;SDS011;17927;52.350;13.402;2024-01-10T04:08:19;90.53;;;35.45;;
31298;SDS011;17927;52.350;13.402;2024-01-10T04:10:45;95.40;;;35.53;;
31298;SDS011;17927;52.350;13.402;2024-01-10T04:13:10;102.15;;;36.25;;
31298;SDS011;17927;52.350;13.402;2024-01-10T04:15:35;94.82;;;37.55;;
31298;SDS011;17927;52.350;13.402;2024-01-10T04:18:00;105.47;;;37.00;;
31298;SDS011;17927;52.350;13.402;2024-01-10T04:20:25;97.38;;;38.33;;
31298;SDS011;17927;52.350;13.402;2024-01-10T04:22:51;90.85;;;36.92;;
31298;SDS011;17927;52.350;13.402;2024-01-10T04:25:16;95.60;;;34.70;;
31298;SDS011;17927;52.350;13.402;2024-01-10T04:27:41;95.55;;;34.60;;
31298;SDS011;17927;52.350;13.402;2024-01-10T04:30:07;92.85;;;33.35;;
31298;SDS011;17927;52.350;13.402;2024-01-10T04:32:33;92.00;;;35.53;;
31298;SDS011;17927;52.350;13.402;2024-01-10T04:34:58;96.78;;;36.72;;
31298;SDS011;17927;52.350;13.402;2024-01-10T04:37:23;98.50;;;37.03;;
31298;SDS011;17927;52.350;13.402;2024-01-10T04:39:48;90.25;;;34.20;;
31298;SDS011;17927;52.350;13.402;2024-01-10T04:42:14;84.32;;;34.10;;
31298;SDS011;17927;52.350;13.402;2024-01-10T04:44:40;90.15;;;33.08;;
31298;SDS011;17927;52.350;13.402;2024-01-10T04:47:05;84.93;;;34.72;;
31298;SDS011;17927;52.350;13.402;2024-01-10T04:49:30;100.28;;;36.20;;
31298;SDS011;17927;52.350;13.402;2024-01-10T04:51:56;95.30;;;35.05;;
31298;SDS011;17927;52.350;13.402;2024-01-10T04:54:21;93.30;;;36.58;;
31298;SDS011;17927;52.350;13.402;2024-01-10T04:56:46;103.47;;;37.58;;
31298;SDS011;17927;52.350;13.402;2024-01-10T04:59:12;97.00;;;36.67;;
31298;SDS011;17927;52.350;13.402;2024-01-10T05:01:37;94.50;;;36.58;;
31298;SDS011;17927;52.350;13.402;2024-01-10T05:04:03;91.07;;;34.97;;
31298;SDS011;17927;52.350;13.402;2024-01-10T05:06:28;93.07;;;35.42;;
31298;SDS011;17927;52.350;13.402;2024-01-10T05:08:53;96.60;;;36.95;;
31298;SDS011;17927;52.350;13.402;2024-01-10T05:11:22;94.57;;;36.08;;
31298;SDS011;17927;52.350;13.402;2024-01-10T05:13:49;92.90;;;36.55;;
31298;SDS011;17927;52.350;13.402;2024-01-10T05:16:14;90.90;;;36.17;;
31298;SDS011;17927;52.350;13.402;2024-01-10T05:18:39;86.22;;;33.10;;
31298;SDS011;17927;52.350;13.402;2024-01-10T05:21:05;98.55;;;35.95;;
31298;SDS011;17927;52.350;13.402;2024-01-10T05:23:30;90.30;;;36.17;;
31298;SDS011;17927;52.350;13.402;2024-01-10T05:25:55;97.18;;;36.63;;
31298;SDS011;17927;52.350;13.402;2024-01-10T05:28:20;98.38;;;35.78;;
31298;SDS011;17927;52.350;13.402;2024-01-10T05:30:46;102.47;;;36.17;;
31298;SDS011;17927;52.350;13.402;2024-01-10T05:33:11;101.80;;;38.13;;
31298;SDS011;17927;52.350;13.402;2024-01-10T05:35:40;94.80;;;36.47;;
31298;SDS011;17927;52.350;13.402;2024-01-10T05:38:05;100.03;;;38.28;;
31298;SDS011;17927;52.350;13.402;2024-01-10T05:40:32;96.43;;;35.92;;
31298;SDS011;17927;52.350;13.402;2024-01-10T05:42:57;87.95;;;34.78;;
31298;SDS011;17927;52.350;13.402;2024-01-10T05:45:24;92.68;;;33.53;;
31298;SDS011;17927;52.350;13.402;2024-01-10T05:47:50;102.97;;;38.88;;
31298;SDS011;17927;52.350;13.402;2024-01-10T05:50:15;86.57;;;35.78;;
31298;SDS011;17927;52.350;13.402;2024-01-10T05:52:40;99.38;;;38.05;;
31298;SDS011;17927;52.350;13.402;2024-01-10T05:55:06;91.18;;;36.42;;
31298;SDS011;17927;52.350;13.402;2024-01-10T05:57:34;98.53;;;37.38;;
31298;SDS011;17927;52.350;13.402;2024-01-10T05:59:59;99.88;;;35.72;;
31298;SDS011;17927;52.350;13.402;2024-01-10T06:02:25;96.55;;;36.17;;
31298;SDS011;17927;52.350;13.402;2024-01-10T06:04:51;89.88;;;32.72;;
31298;SDS011;17927;52.350;13.402;2024-01-10T06:07:16;99.93;;;38.22;;
31298;SDS011;17927;52.350;13.402;2024-01-10T06:09:41;94.63;;;35.92;;
31298;SDS011;17927;52.350;13.402;2024-01-10T06:12:08;94.03;;;34.78;;
31298;SDS011;17927;52.350;13.402;2024-01-10T06:14:34;97.78;;;36.85;;
31298;SDS011;17927;52.350;13.402;2024-01-10T06:16:59;101.22;;;38.47;;
31298;SDS011;17927;52.350;13.402;2024-01-10T06:19:26;100.22;;;37.47;;
31298;SDS011;17927;52.350;13.402;2024-01-10T06:21:51;96.95;;;36.33;;
31298;SDS011;17927;52.350;13.402;2024-01-10T06:24:17;86.60;;;34.83;;
31298;SDS011;17927;52.350;13.402;2024-01-10T06:26:42;90.70;;;36.10;;
31298;SDS011;17927;52.350;13.402;2024-01-10T06:29:08;97.32;;;36.33;;
31298;SDS011;17927;52.350;13.402;2024-01-10T06:31:33;98.95;;;37.80;;
31298;SDS011;17927;52.350;13.402;2024-01-10T06:33:58;103.32;;;36.30;;
31298;SDS011;17927;52.350;13.402;2024-01-10T06:36:24;96.88;;;37.83;;
31298;SDS011;17927;52.350;13.402;2024-01-10T06:38:49;100.70;;;35.53;;
31298;SDS011;17927;52.350;13.402;2024-01-10T06:41:14;106.10;;;38.70;;
31298;SDS011;17927;52.350;13.402;2024-01-10T06:43:39;96.32;;;35.83;;
31298;SDS011;17927;52.350;13.402;2024-01-10T06:46:05;94.55;;;36.13;;
31298;SDS011;17927;52.350;13.402;2024-01-10T06:48:30;93.47;;;35.60;;
31298;SDS011;17927;52.350;13.402;2024-01-10T06:50:57;91.80;;;36.63;;
31298;SDS011;17927;52.350;13.402;2024-01-10T06:53:22;96.88;;;35.67;;
31298;SDS011;17927;52.350;13.402;2024-01-10T06:55:47;102.32;;;37.40;;
31298;SDS011;17927;52.350;13.402;2024-01-10T06:58:13;97.63;;;35.67;;
31298;SDS011;17927;52.350;13.402;2024-01-10T07:00:38;95.63;;;36.25;;
31298;SDS011;17927;52.350;13.402;2024-01-10T07:03:03;97.05;;;36.17;;
31298;SDS011;17927;52.350;13.402;2024-01-10T07:05:29;101.45;;;37.33;;
31298;SDS011;17927;52.350;13.402;2024-01-10T07:07:56;103.78;;;38.65;;
31298;SDS011;17927;52.350;13.402;2024-01-10T07:10:27;97.82;;;36.70;;
31298;SDS011;17927;52.350;13.402;2024-01-10T07:12:53;99.70;;;38.15;;
31298;SDS011;17927;52.350;13.402;2024-01-10T07:15:19;88.15;;;36.78;;
31298;SDS011;17927;52.350;13.402;2024-01-10T07:17:45;99.95;;;39.22;;
31298;SDS011;17927;52.350;13.402;2024-01-10T07:20:10;109.13;;;38.55;;
31298;SDS011;17927;52.350;13.402;2024-01-10T07:22:37;104.03;;;38.20;;
31298;SDS011;17927;52.350;13.402;2024-01-10T07:25:04;95.57;;;36.97;;
31298;SDS011;17927;52.350;13.402;2024-01-10T07:27:31;95.90;;;36.33;;
31298;SDS011;17927;52.350;13.402;2024-01-10T07:29:56;89.70;;;35.30;;
31298;SDS011;17927;52.350;13.402;2024-01-10T07:32:22;97.72;;;37.35;;
31298;SDS011;17927;52.350;13.402;2024-01-10T07:34:48;95.85;;;38.17;;
31298;SDS011;17927;52.350;13.402;2024-01-10T07:37:13;92.65;;;37.72;;
31298;SDS011;17927;52.350;13.402;2024-01-10T07:39:38;100.60;;;36.00;;
31298;SDS011;17927;52.350;13.402;2024-01-10T07:42:03;100.70;;;38.40;;
31298;SDS011;17927;52.350;13.402;2024-01-10T07:44:29;104.68;;;39.90;;
31298;SDS011;17927;52.350;13.402;2024-01-10T07:46:54;93.13;;;36.45;;
31298;SDS011;17927;52.350;13.402;2024-01-10T07:49:20;90.90;;;36.78;;
31298;SDS011;17927;52.350;13.402;2024-01-10T07:51:46;102.93;;;36.05;;
31298;SDS011;17927;52.350;13.402;2024-01-10T07:54:12;92.30;;;36.22;;
31298;SDS011;17927;52.350;13.402;2024-01-10T07:56:37;94.22;;;37.22;;
31298;SDS011;17927;52.350;13.402;2024-01-10T07:59:02;95.65;;;34.92;;
31298;SDS011;17927;52.350;13.402;2024-01-10T08:01:29;101.10;;;38.53;;
31298;SDS011;17927;52.350;13.402;2024-01-10T08:03:54;102.80;;;37.90;;
31298;SDS011;17927;52.350;13.402;2024-01-10T08:06:20;92.95;;;36.00;;
31298;SDS011;17927;52.350;13.402;2024-01-10T08:08:45;108.85;;;39.72;;
31298;SDS011;17927;52.350;13.402;2024-01-10T08:11:11;106.25;;;43.40;;
31298;SDS011;17927;52.350;13.402;2024-01-10T08:13:36;105.32;;;42.85;;
31298;SDS011;17927;52.350;13.402;2024-01-10T08:16:01;112.72;;;42.60;;
31298;SDS011;17927;52.350;13.402;2024-01-10T08:18:28;108.45;;;40.45;;
31298;SDS011;17927;52.350;13.402;2024-01-10T08:20:53;107.55;;;40.25;;
31298;SDS011;17927;52.350;13.402;2024-01-10T08:23:20;93.72;;;37.78;;
31298;SDS011;17927;52.350;13.402;2024-01-10T08:25:45;94.88;;;38.22;;
31298;SDS011;17927;52.350;13.402;2024-01-10T08:28:10;104.63;;;37.47;;
31298;SDS011;17927;52.350;13.402;2024-01-10T08:30:36;105.75;;;39.17;;
31298;SDS011;17927;52.350;13.402;2024-01-10T08:33:01;104.00;;;40.80;;
31298;SDS011;17927;52.350;13.402;2024-01-10T08:35:29;99.88;;;40.10;;
31298;SDS011;17927;52.350;13.402;2024-01-10T08:37:54;100.43;;;38.20;;
31298;SDS011;17927;52.350;13.402;2024-01-10T08:40:20;100.28;;;38.25;;
31298;SDS011;17927;52.350;13.402;2024-01-10T08:42:49;105.45;;;39.60;;
31298;SDS011;17927;52.350;13.402;2024-01-10T08:45:14;105.07;;;40.05;;
31298;SDS011;17927;52.350;13.402;2024-01-10T08:47:40;104.68;;;40.97;;
31298;SDS011;17927;52.350;13.402;2024-01-10T08:50:05;101.30;;;40.58;;
31298;SDS011;17927;52.350;13.402;2024-01-10T08:52:33;100.28;;;39.50;;
31298;SDS011;17927;52.350;13.402;2024-01-10T08:54:59;107.97;;;39.03;;
31298;SDS011;17927;52.350;13.402;2024-01-10T08:57:24;98.80;;;41.42;;
31298;SDS011;17927;52.350;13.402;2024-01-10T08:59:51;96.78;;;40.17;;
31298;SDS011;17927;52.350;13.402;2024-01-10T09:02:17;105.97;;;41.35;;
31298;SDS011;17927;52.350;13.402;2024-01-10T09:04:42;104.07;;;40.05;;
31298;SDS011;17927;52.350;13.402;2024-01-10T09:07:07;103.57;;;39.45;;
31298;SDS011;17927;52.350;13.402;2024-01-10T09:09:34;97.47;;;38.92;;
31298;SDS011;17927;52.350;13.402;2024-01-10T09:11:59;98.53;;;39.30;;
31298;SDS011;17927;52.350;13.402;2024-01-10T09:14:25;98.18;;;38.38;;
31298;SDS011;17927;52.350;13.402;2024-01-10T09:16:50;102.28;;;40.05;;
31298;SDS011;17927;52.350;13.402;2024-01-10T09:19:15;105.75;;;41.17;;
31298;SDS011;17927;52.350;13.402;2024-01-10T09:21:40;95.75;;;39.25;;
31298;SDS011;17927;52.350;13.402;2024-01-10T09:24:06;100.85;;;39.45;;
31298;SDS011;17927;52.350;13.402;2024-01-10T09:26:33;105.53;;;41.22;;
31298;SDS011;17927;52.350;13.402;2024-01-10T09:28:59;96.53;;;39.92;;
31298;SDS011;17927;52.350;13.402;2024-01-10T09:31:24;104.15;;;38.40;;
31298;SDS011;17927;52.350;13.402;2024-01-10T09:33:49;106.82;;;40.53;;
31298;SDS011;17927;52.350;13.402;2024-01-10T09:36:15;99.53;;;39.63;;
31298;SDS011;17927;52.350;13.402;2024-01-10T09:38:40;101.68;;;38.95;;
31298;SDS011;17927;52.350;13.402;2024-01-10T09:41:06;102.32;;;41.17;;
31298;SDS011;17927;52.350;13.402;2024-01-10T09:43:31;100.55;;;39.53;;
31298;SDS011;17927;52.350;13.402;2024-01-10T09:46:00;97.78;;;38.70;;
31298;SDS011;17927;52.350;13.402;2024-01-10T09:48:27;100.32;;;39.38;;
31298;SDS011;17927;52.350;13.402;2024-01-10T09:50:52;105.07;;;40.22;;
31298;SDS011;17927;52.350;13.402;2024-01-10T09:53:24;98.47;;;39.55;;
31298;SDS011;17927;52.350;13.402;2024-01-10T09:55:50;97.38;;;38.25;;
31298;SDS011;17927;52.350;13.402;2024-01-10T09:58:15;97.63;;;38.95;;
31298;SDS011;17927;52.350;13.402;2024-01-10T10:00:41;96.55;;;37.38;;
31298;SDS011;17927;52.350;13.402;2024-01-10T10:03:09;96.38;;;37.95;;
31298;SDS011;17927;52.350;13.402;2024-01-10T10:05:38;90.30;;;37.78;;
31298;SDS011;17927;52.350;13.402;2024-01-10T10:08:07;86.30;;;37.05;;
31298;SDS011;17927;52.350;13.402;2024-01-10T10:10:33;93.70;;;39.97;;
31298;SDS011;17927;52.350;13.402;2024-01-10T10:12:58;89.10;;;37.08;;
31298;SDS011;17927;52.350;13.402;2024-01-10T10:15:24;104.75;;;38.63;;
31298;SDS011;17927;52.350;13.402;2024-01-10T10:17:53;97.05;;;38.30;;
31298;SDS011;17927;52.350;13.402;2024-01-10T10:20:20;89.43;;;36.05;;
31298;SDS011;17927;52.350;13.402;2024-01-10T10:22:59;94.57;;;38.60;;
31298;SDS011;17927;52.350;13.402;2024-01-10T10:25:30;88.32;;;38.03;;
31298;SDS011;17927;52.350;13.402;2024-01-10T10:27:57;82.00;;;35.42;;
31298;SDS011;17927;52.350;13.402;2024-01-10T10:30:22;89.50;;;35.28;;
31298;SDS011;17927;52.350;13.402;2024-01-10T10:32:47;85.90;;;34.17;;
31298;SDS011;17927;52.350;13.402;2024-01-10T10:35:13;81.60;;;35.80;;
31298;SDS011;17927;52.350;13.402;2024-01-10T10:37:38;83.38;;;33.88;;
31298;SDS011;17927;52.350;13.402;2024-01-10T10:40:04;80.88;;;32.75;;
31298;SDS011;17927;52.350;13.402;2024-01-10T10:42:29;78.43;;;32.97;;
31298;SDS011;17927;52.350;13.402;2024-01-10T10:44:57;73.65;;;32.33;;
31298;SDS011;17927;52.350;13.402;2024-01-10T10:47:30;72.53;;;31.67;;
31298;SDS011;17927;52.350;13.402;2024-01-10T10:49:59;75.20;;;30.73;;
31298;SDS011;17927;52.350;13.402;2024-01-10T10:52:27;79.85;;;32.13;;
31298;SDS011;17927;52.350;13.402;2024-01-10T10:54:54;71.13;;;31.10;;
31298;SDS011;17927;52.350;13.402;2024-01-10T10:57:22;75.75;;;32.65;;
31298;SDS011;17927;52.350;13.402;2024-01-10T10:59:50;78.60;;;32.10;;
31298;SDS011;17927;52.350;13.402;2024-01-10T11:02:18;82.65;;;32.42;;
31298;SDS011;17927;52.350;13.402;2024-01-10T11:04:46;75.25;;;32.75;;
31298;SDS011;17927;52.350;13.402;2024-01-10T11:07:12;78.90;;;33.60;;
31298;SDS011;17927;52.350;13.402;2024-01-10T11:09:37;81.47;;;31.77;;
31298;SDS011;17927;52.350;13.402;2024-01-10T11:15:12;74.47;;;29.65;;
31298;SDS011;17927;52.350;13.402;2024-01-10T11:18:07;82.25;;;31.77;;
31298;SDS011;17927;52.350;13.402;2024-01-10T11:20:58;73.47;;;30.02;;
31298;SDS011;17927;52.350;13.402;2024-01-10T11:23:43;69.80;;;29.52;;
31298;SDS011;17927;52.350;13.402;2024-01-10T11:26:11;67.82;;;30.88;;
31298;SDS011;17927;52.350;13.402;2024-01-10T11:28:39;70.07;;;30.65;;
31298;SDS011;17927;52.350;13.402;2024-01-10T11:31:05;77.25;;;32.15;;
31298;SDS011;17927;52.350;13.402;2024-01-10T11:33:33;76.22;;;30.63;;
31298;SDS011;17927;52.350;13.402;2024-01-10T11:36:09;65.03;;;29.45;;
31298;SDS011;17927;52.350;13.402;2024-01-10T11:41:23;62.10;;;27.70;;
31298;SDS011;17927;52.350;13.402;2024-01-10T11:46:33;71.30;;;25.23;;
31298;SDS011;17927;52.350;13.402;2024-01-10T11:48:59;58.85;;;26.30;;
31298;SDS011;17927;52.350;13.402;2024-01-10T11:51:24;61.38;;;25.45;;
31298;SDS011;17927;52.350;13.402;2024-01-10T11:53:50;58.08;;;25.38;;
31298;SDS011;17927;52.350;13.402;2024-01-10T11:56:17;53.40;;;24.45;;
31298;SDS011;17927;52.350;13.402;2024-01-10T12:01:26;50.75;;;23.25;;
31298;SDS011;17927;52.350;13.402;2024-01-10T12:03:52;59.53;;;23.85;;
31298;SDS011;17927;52.350;13.402;2024-01-10T12:06:18;60.53;;;24.65;;
31298;SDS011;17927;52.350;13.402;2024-01-10T12:08:45;52.53;;;23.35;;
31298;SDS011;17927;52.350;13.402;2024-01-10T12:11:10;60.88;;;26.17;;
31298;SDS011;17927;52.350;13.402;2024-01-10T12:13:36;55.97;;;27.30;;
31298;SDS011;17927;52.350;13.402;2024-01-10T12:16:01;65.07;;;29.73;;
31298;SDS011;17927;52.350;13.402;2024-01-10T12:18:26;70.63;;;31.48;;
31298;SDS011;17927;52.350;13.402;2024-01-10T12:20:52;68.90;;;31.27;;
31298;SDS011;17927;52.350;13.402;2024-01-10T12:23:17;62.15;;;29.08;;
31298;SDS011;17927;52.350;13.402;2024-01-10T12:25:42;66.88;;;30.75;;
31298;SDS011;17927;52.350;13.402;2024-01-10T12:28:07;63.08;;;28.75;;
31298;SDS011;17927;52.350;13.402;2024-01-10T12:30:33;71.50;;;28.98;;
31298;SDS011;17927;52.350;13.402;2024-01-10T12:32:59;60.05;;;27.77;;
31298;SDS011;17927;52.350;13.402;2024-01-10T12:35:25;57.28;;;26.90;;
31298;SDS011;17927;52.350;13.402;2024-01-10T12:37:56;58.90;;;26.63;;
31298;SDS011;17927;52.350;13.402;2024-01-10T12:40:22;55.55;;;26.35;;
31298;SDS011;17927;52.350;13.402;2024-01-10T12:42:47;56.67;;;28.02;;
31298;SDS011;17927;52.350;13.402;2024-01-10T12:45:22;63.33;;;29.40;;
31298;SDS011;17927;52.350;13.402;2024-01-10T12:47:48;60.28;;;27.25;;
31298;SDS011;17927;52.350;13.402;2024-01-10T12:50:13;61.50;;;26.38;;
31298;SDS011;17927;52.350;13.402;2024-01-10T12:52:40;55.70;;;26.92;;
31298;SDS011;17927;52.350;13.402;2024-01-10T12:55:07;59.70;;;27.30;;
31298;SDS011;17927;52.350;13.402;2024-01-10T12:57:33;61.17;;;27.70;;
31298;SDS011;17927;52.350;13.402;2024-01-10T12:59:58;57.90;;;24.55;;
31298;SDS011;17927;52.350;13.402;2024-01-10T13:02:23;56.30;;;24.77;;
31298;SDS011;17927;52.350;13.402;2024-01-10T13:04:48;53.17;;;24.92;;
31298;SDS011;17927;52.350;13.402;2024-01-10T13:07:14;51.35;;;23.75;;
31298;SDS011;17927;52.350;13.402;2024-01-10T13:09:39;47.35;;;23.85;;
31298;SDS011;17927;52.350;13.402;2024-01-10T13:12:05;43.85;;;23.23;;
31298;SDS011;17927;52.350;13.402;2024-01-10T13:14:30;43.00;;;20.25;;
31298;SDS011;17927;52.350;13.402;2024-01-10T13:16:56;42.65;;;20.60;;
31298;SDS011;17927;52.350;13.402;2024-01-10T13:19:21;42.30;;;20.90;;
31298;SDS011;17927;52.350;13.402;2024-01-10T13:21:47;38.63;;;19.23;;
31298;SDS011;17927;52.350;13.402;2024-01-10T13:24:12;40.60;;;19.65;;
31298;SDS011;17927;52.350;13.402;2024-01-10T13:26:37;45.35;;;20.13;;
31298;SDS011;17927;52.350;13.402;2024-01-10T13:29:03;47.90;;;21.65;;
31298;SDS011;17927;52.350;13.402;2024-01-10T13:31:28;46.60;;;22.98;;
31298;SDS011;17927;52.350;13.402;2024-01-10T13:33:53;45.90;;;23.15;;
31298;SDS011;17927;52.350;13.402;2024-01-10T13:36:19;50.45;;;23.58;;
31298;SDS011;17927;52.350;13.402;2024-01-10T13:38:44;44.33;;;22.30;;
31298;SDS011;17927;52.350;13.402;2024-01-10T13:41:10;47.40;;;21.58;;
31298;SDS011;17927;52.350;13.402;2024-01-10T13:43:35;45.17;;;21.48;;
31298;SDS011;17927;52.350;13.402;2024-01-10T13:46:00;42.50;;;20.75;;
31298;SDS011;17927;52.350;13.402;2024-01-10T13:48:26;41.22;;;21.70;;
31298;SDS011;17927;52.350;13.402;2024-01-10T13:50:52;39.25;;;20.55;;
31298;SDS011;17927;52.350;13.402;2024-01-10T13:53:17;46.95;;;20.02;;
31298;SDS011;17927;52.350;13.402;2024-01-10T13:55:42;41.13;;;20.60;;
31298;SDS011;17927;52.350;13.402;2024-01-10T13:58:08;39.42;;;18.75;;
31298;SDS011;17927;52.350;13.402;2024-01-10T14:00:33;36.13;;;17.95;;
31298;SDS011;17927;52.350;13.402;2024-01-10T14:02:58;37.78;;;18.25;;
31298;SDS011;17927;52.350;13.402;2024-01-10T14:05:25;38.65;;;20.15;;
31298;SDS011;17927;52.350;13.402;2024-01-10T14:07:51;35.97;;;18.23;;
31298;SDS011;17927;52.350;13.402;2024-01-10T14:10:16;40.80;;;19.75;;